sensor_id;sensor_type;location;lat;lon;timestamp;P1;durP1;ratioP1;P2;durP2;ratioP2
47545;SDS011;50104;52.002;4.688;2023-05-14T00:01:44;18.55;;;12.98;;
47545;SDS011;50104;52.002;4.688;2023-05-14T00:06:45;17.42;;;12.80;;
47545;SDS011;50104;52.002;4.688;2023-05-14T00:11:46;17.80;;;13.02;;
47545;SDS011;50104;52.002;4.688;2023-05-14T00:16:47;16.02;;;12.68;;
47545;SDS011;50104;52.002;4.688;2023-05-14T00:21:48;20.10;;;13.35;;
47545;SDS011;50104;52.002;4.688;2023-05-14T00:26:49;16.45;;;12.57;;
47545;SDS011;50104;52.002;4.688;2023-05-14T00:31:50;16.00;;;11.07;;
47545;SDS011;50104;52.002;4.688;2023-05-14T00:36:50;14.60;;;11.88;;
47545;SDS011;50104;52.002;4.688;2023-05-14T00:41:51;14.25;;;11.43;;
47545;SDS011;50104;52.002;4.688;2023-05-14T00:46:52;19.80;;;12.35;;
47545;SDS011;50104;52.002;4.688;2023-05-14T00:51:53;14.50;;;11.55;;
47545;SDS011;50104;52.002;4.688;2023-05-14T00:56:58;15.25;;;11.88;;
47545;SDS011;50104;52.002;4.688;2023-05-14T01:01:59;16.88;;;12.35;;
47545;SDS011;50104;52.002;4.688;2023-05-14T01:12:28;15.88;;;11.95;;
47545;SDS011;50104;52.002;4.688;2023-05-14T01:17:39;16.35;;;11.18;;
47545;SDS011;50104;52.002;4.688;2023-05-14T01:22:45;18.80;;;11.98;;
47545;SDS011;50104;52.002;4.688;2023-05-14T01:33:12;17.77;;;10.82;;
47545;SDS011;50104;52.002;4.688;2023-05-14T01:38:17;16.23;;;11.52;;
47545;SDS011;50104;52.002;4.688;2023-05-14T01:43:19;18.65;;;11.27;;
47545;SDS011;50104;52.002;4.688;2023-05-14T01:48:21;15.63;;;12.45;;
47545;SDS011;50104;52.002;4.688;2023-05-14T01:53:22;20.40;;;12.23;;
47545;SDS011;50104;52.002;4.688;2023-05-14T01:58:23;16.75;;;11.90;;
47545;SDS011;50104;52.002;4.688;2023-05-14T02:03:24;17.95;;;11.57;;
47545;SDS011;50104;52.002;4.688;2023-05-14T02:08:25;17.98;;;12.32;;
47545;SDS011;50104;52.002;4.688;2023-05-14T02:13:26;16.55;;;12.20;;
47545;SDS011;50104;52.002;4.688;2023-05-14T02:18:26;19.33;;;13.25;;
47545;SDS011;50104;52.002;4.688;2023-05-14T02:23:27;19.00;;;12.77;;
47545;SDS011;50104;52.002;4.688;2023-05-14T02:28:28;18.40;;;12.98;;
47545;SDS011;50104;52.002;4.688;2023-05-14T02:33:29;21.35;;;13.77;;
47545;SDS011;50104;52.002;4.688;2023-05-14T02:38:30;18.33;;;13.32;;
47545;SDS011;50104;52.002;4.688;2023-05-14T02:43:31;19.27;;;12.93;;
47545;SDS011;50104;52.002;4.688;2023-05-14T02:48:31;18.40;;;13.63;;
47545;SDS011;50104;52.002;4.688;2023-05-14T02:53:34;19.80;;;13.63;;
47545;SDS011;50104;52.002;4.688;2023-05-14T02:58:34;21.88;;;13.38;;
47545;SDS011;50104;52.002;4.688;2023-05-14T03:03:35;20.00;;;13.40;;
47545;SDS011;50104;52.002;4.688;2023-05-14T03:08:37;23.83;;;14.07;;
47545;SDS011;50104;52.002;4.688;2023-05-14T03:13:38;20.85;;;14.18;;
47545;SDS011;50104;52.002;4.688;2023-05-14T03:18:39;21.48;;;13.52;;
47545;SDS011;50104;52.002;4.688;2023-05-14T03:23:39;19.35;;;14.02;;
47545;SDS011;50104;52.002;4.688;2023-05-14T03:28:40;22.05;;;13.85;;
47545;SDS011;50104;52.002;4.688;2023-05-14T03:33:41;20.60;;;12.80;;
47545;SDS011;50104;52.002;4.688;2023-05-14T03:38:42;23.75;;;14.20;;
47545;SDS011;50104;52.002;4.688;2023-05-14T03:43:43;21.20;;;14.25;;
47545;SDS011;50104;52.002;4.688;2023-05-14T03:48:43;25.45;;;15.65;;
47545;SDS011;50104;52.002;4.688;2023-05-14T03:53:44;24.05;;;14.85;;
47545;SDS011;50104;52.002;4.688;2023-05-14T03:58:45;20.30;;;14.48;;
47545;SDS011;50104;52.002;4.688;2023-05-14T04:03:46;21.50;;;13.80;;
47545;SDS011;50104;52.002;4.688;2023-05-14T04:08:46;22.85;;;12.82;;
47545;SDS011;50104;52.002;4.688;2023-05-14T04:13:47;22.10;;;13.68;;
47545;SDS011;50104;52.002;4.688;2023-05-14T04:18:49;20.67;;;13.50;;
47545;SDS011;50104;52.002;4.688;2023-05-14T04:23:50;18.65;;;12.82;;
47545;SDS011;50104;52.002;4.688;2023-05-14T04:28:50;19.65;;;12.70;;
47545;SDS011;50104;52.002;4.688;2023-05-14T04:33:51;18.83;;;12.70;;
47545;SDS011;50104;52.002;4.688;2023-05-14T04:38:52;19.73;;;12.20;;
47545;SDS011;50104;52.002;4.688;2023-05-14T04:43:54;19.25;;;12.68;;
47545;SDS011;50104;52.002;4.688;2023-05-14T04:48:55;17.90;;;12.20;;
47545;SDS011;50104;52.002;4.688;2023-05-14T04:53:56;20.13;;;13.88;;
47545;SDS011;50104;52.002;4.688;2023-05-14T04:58:57;17.55;;;11.50;;
47545;SDS011;50104;52.002;4.688;2023-05-14T05:03:58;18.60;;;12.02;;
47545;SDS011;50104;52.002;4.688;2023-05-14T05:08:59;21.42;;;12.80;;
47545;SDS011;50104;52.002;4.688;2023-05-14T05:14:00;16.25;;;11.20;;
47545;SDS011;50104;52.002;4.688;2023-05-14T05:19:00;20.38;;;13.05;;
47545;SDS011;50104;52.002;4.688;2023-05-14T05:24:01;14.80;;;11.50;;
47545;SDS011;50104;52.002;4.688;2023-05-14T05:29:02;18.42;;;12.38;;
47545;SDS011;50104;52.002;4.688;2023-05-14T05:34:04;18.02;;;13.07;;
47545;SDS011;50104;52.002;4.688;2023-05-14T05:39:05;20.35;;;12.65;;
47545;SDS011;50104;52.002;4.688;2023-05-14T05:44:06;20.10;;;12.73;;
47545;SDS011;50104;52.002;4.688;2023-05-14T05:49:07;18.85;;;13.07;;
47545;SDS011;50104;52.002;4.688;2023-05-14T05:54:08;22.55;;;13.30;;
47545;SDS011;50104;52.002;4.688;2023-05-14T05:59:09;22.98;;;13.25;;
47545;SDS011;50104;52.002;4.688;2023-05-14T06:04:09;24.80;;;15.25;;
47545;SDS011;50104;52.002;4.688;2023-05-14T06:09:10;23.65;;;14.40;;
47545;SDS011;50104;52.002;4.688;2023-05-14T06:14:12;24.27;;;16.05;;
47545;SDS011;50104;52.002;4.688;2023-05-14T06:19:13;28.38;;;15.45;;
47545;SDS011;50104;52.002;4.688;2023-05-14T06:24:14;31.17;;;17.75;;
47545;SDS011;50104;52.002;4.688;2023-05-14T06:29:15;30.42;;;17.73;;
47545;SDS011;50104;52.002;4.688;2023-05-14T06:34:16;26.92;;;16.95;;
47545;SDS011;50104;52.002;4.688;2023-05-14T06:39:17;25.98;;;17.60;;
47545;SDS011;50104;52.002;4.688;2023-05-14T06:44:18;27.50;;;17.23;;
47545;SDS011;50104;52.002;4.688;2023-05-14T06:49:19;27.17;;;17.75;;
47545;SDS011;50104;52.002;4.688;2023-05-14T06:54:20;28.42;;;17.85;;
47545;SDS011;50104;52.002;4.688;2023-05-14T06:59:21;31.23;;;18.98;;
47545;SDS011;50104;52.002;4.688;2023-05-14T07:04:22;31.55;;;17.67;;
47545;SDS011;50104;52.002;4.688;2023-05-14T07:09:22;29.50;;;17.88;;
47545;SDS011;50104;52.002;4.688;2023-05-14T07:14:23;31.42;;;20.83;;
47545;SDS011;50104;52.002;4.688;2023-05-14T07:19:24;29.15;;;18.58;;
47545;SDS011;50104;52.002;4.688;2023-05-14T07:24:27;27.75;;;16.92;;
47545;SDS011;50104;52.002;4.688;2023-05-14T07:29:28;26.73;;;17.77;;
47545;SDS011;50104;52.002;4.688;2023-05-14T07:34:29;26.73;;;16.42;;
47545;SDS011;50104;52.002;4.688;2023-05-14T07:39:30;29.27;;;17.13;;
47545;SDS011;50104;52.002;4.688;2023-05-14T07:44:31;23.13;;;15.75;;
47545;SDS011;50104;52.002;4.688;2023-05-14T07:49:32;19.77;;;15.63;;
47545;SDS011;50104;52.002;4.688;2023-05-14T07:54:33;22.42;;;16.20;;
47545;SDS011;50104;52.002;4.688;2023-05-14T07:59:34;23.48;;;14.80;;
47545;SDS011;50104;52.002;4.688;2023-05-14T08:04:35;21.05;;;14.43;;
47545;SDS011;50104;52.002;4.688;2023-05-14T08:09:36;20.30;;;14.68;;
47545;SDS011;50104;52.002;4.688;2023-05-14T08:14:37;18.58;;;13.43;;
47545;SDS011;50104;52.002;4.688;2023-05-14T08:19:40;20.48;;;12.55;;
47545;SDS011;50104;52.002;4.688;2023-05-14T08:24:41;15.27;;;10.63;;
47545;SDS011;50104;52.002;4.688;2023-05-14T08:29:42;15.10;;;11.55;;
47545;SDS011;50104;52.002;4.688;2023-05-14T08:34:43;18.77;;;12.38;;
47545;SDS011;50104;52.002;4.688;2023-05-14T08:39:44;17.20;;;12.65;;
47545;SDS011;50104;52.002;4.688;2023-05-14T08:44:46;19.88;;;13.00;;
47545;SDS011;50104;52.002;4.688;2023-05-14T08:49:53;18.95;;;12.00;;
47545;SDS011;50104;52.002;4.688;2023-05-14T08:55:04;19.98;;;12.50;;
47545;SDS011;50104;52.002;4.688;2023-05-14T09:00:06;13.82;;;10.55;;
47545;SDS011;50104;52.002;4.688;2023-05-14T09:05:07;17.58;;;11.40;;
47545;SDS011;50104;52.002;4.688;2023-05-14T09:10:09;15.75;;;10.63;;
47545;SDS011;50104;52.002;4.688;2023-05-14T09:15:10;13.25;;;10.98;;
47545;SDS011;50104;52.002;4.688;2023-05-14T09:20:11;14.90;;;9.98;;
47545;SDS011;50104;52.002;4.688;2023-05-14T09:25:13;12.77;;;10.35;;
47545;SDS011;50104;52.002;4.688;2023-05-14T09:30:14;13.13;;;9.95;;
47545;SDS011;50104;52.002;4.688;2023-05-14T09:35:17;13.20;;;9.52;;
47545;SDS011;50104;52.002;4.688;2023-05-14T09:40:22;11.93;;;10.10;;
47545;SDS011;50104;52.002;4.688;2023-05-14T09:45:23;15.70;;;10.55;;
47545;SDS011;50104;52.002;4.688;2023-05-14T09:50:24;12.02;;;10.63;;
47545;SDS011;50104;52.002;4.688;2023-05-14T09:55:25;13.77;;;9.77;;
47545;SDS011;50104;52.002;4.688;2023-05-14T10:00:26;11.27;;;9.63;;
47545;SDS011;50104;52.002;4.688;2023-05-14T10:05:29;12.82;;;9.38;;
47545;SDS011;50104;52.002;4.688;2023-05-14T10:10:32;11.18;;;9.02;;
47545;SDS011;50104;52.002;4.688;2023-05-14T10:15:36;9.77;;;8.20;;
47545;SDS011;50104;52.002;4.688;2023-05-14T10:21:04;12.38;;;8.00;;
47545;SDS011;50104;52.002;4.688;2023-05-14T10:26:07;12.18;;;7.63;;
47545;SDS011;50104;52.002;4.688;2023-05-14T10:31:09;10.88;;;7.88;;
47545;SDS011;50104;52.002;4.688;2023-05-14T10:36:10;9.73;;;7.30;;
47545;SDS011;50104;52.002;4.688;2023-05-14T10:41:14;8.13;;;6.68;;
47545;SDS011;50104;52.002;4.688;2023-05-14T10:46:16;10.70;;;7.55;;
47545;SDS011;50104;52.002;4.688;2023-05-14T10:51:17;10.13;;;8.80;;
47545;SDS011;50104;52.002;4.688;2023-05-14T10:56:21;10.85;;;7.68;;
47545;SDS011;50104;52.002;4.688;2023-05-14T11:01:23;7.10;;;6.35;;
47545;SDS011;50104;52.002;4.688;2023-05-14T11:06:24;11.02;;;6.03;;
47545;SDS011;50104;52.002;4.688;2023-05-14T11:11:26;6.55;;;5.38;;
47545;SDS011;50104;52.002;4.688;2023-05-14T11:16:27;9.02;;;6.32;;
47545;SDS011;50104;52.002;4.688;2023-05-14T11:21:30;7.68;;;5.97;;
47545;SDS011;50104;52.002;4.688;2023-05-14T11:26:31;8.90;;;5.78;;
47545;SDS011;50104;52.002;4.688;2023-05-14T11:31:33;6.10;;;5.50;;
47545;SDS011;50104;52.002;4.688;2023-05-14T11:36:35;14.60;;;6.63;;
47545;SDS011;50104;52.002;4.688;2023-05-14T11:41:36;10.93;;;6.35;;
47545;SDS011;50104;52.002;4.688;2023-05-14T11:46:54;9.38;;;5.80;;
47545;SDS011;50104;52.002;4.688;2023-05-14T11:52:06;10.05;;;5.88;;
47545;SDS011;50104;52.002;4.688;2023-05-14T11:57:14;10.35;;;6.43;;
47545;SDS011;50104;52.002;4.688;2023-05-14T12:02:18;9.65;;;6.22;;
47545;SDS011;50104;52.002;4.688;2023-05-14T12:07:19;13.68;;;5.80;;
47545;SDS011;50104;52.002;4.688;2023-05-14T12:12:20;10.90;;;6.50;;
47545;SDS011;50104;52.002;4.688;2023-05-14T12:17:22;9.43;;;5.63;;
47545;SDS011;50104;52.002;4.688;2023-05-14T12:22:23;7.60;;;6.10;;
47545;SDS011;50104;52.002;4.688;2023-05-14T12:27:24;6.80;;;5.63;;
47545;SDS011;50104;52.002;4.688;2023-05-14T12:32:26;7.07;;;5.32;;
47545;SDS011;50104;52.002;4.688;2023-05-14T12:37:27;8.05;;;5.38;;
47545;SDS011;50104;52.002;4.688;2023-05-14T12:42:28;8.88;;;6.05;;
47545;SDS011;50104;52.002;4.688;2023-05-14T12:47:29;13.60;;;5.53;;
47545;SDS011;50104;52.002;4.688;2023-05-14T12:52:31;10.13;;;5.65;;
47545;SDS011;50104;52.002;4.688;2023-05-14T12:57:32;8.98;;;5.25;;
47545;SDS011;50104;52.002;4.688;2023-05-14T13:02:34;10.02;;;6.35;;
47545;SDS011;50104;52.002;4.688;2023-05-14T13:07:34;11.32;;;5.03;;
47545;SDS011;50104;52.002;4.688;2023-05-14T13:12:35;10.95;;;5.07;;
47545;SDS011;50104;52.002;4.688;2023-05-14T13:17:36;11.57;;;5.95;;
47545;SDS011;50104;52.002;4.688;2023-05-14T13:22:37;9.57;;;5.55;;
47545;SDS011;50104;52.002;4.688;2023-05-14T13:27:37;10.38;;;5.50;;
47545;SDS011;50104;52.002;4.688;2023-05-14T13:32:38;11.98;;;5.60;;
47545;SDS011;50104;52.002;4.688;2023-05-14T13:37:39;12.55;;;5.72;;
47545;SDS011;50104;52.002;4.688;2023-05-14T13:42:42;8.43;;;5.30;;
47545;SDS011;50104;52.002;4.688;2023-05-14T13:47:43;14.20;;;5.00;;
47545;SDS011;50104;52.002;4.688;2023-05-14T13:52:43;7.18;;;4.85;;
47545;SDS011;50104;52.002;4.688;2023-05-14T13:57:44;11.13;;;4.72;;
47545;SDS011;50104;52.002;4.688;2023-05-14T14:02:45;10.07;;;5.05;;
47545;SDS011;50104;52.002;4.688;2023-05-14T14:07:46;9.23;;;5.07;;
47545;SDS011;50104;52.002;4.688;2023-05-14T14:12:47;7.53;;;4.90;;
47545;SDS011;50104;52.002;4.688;2023-05-14T14:17:48;10.05;;;4.70;;
47545;SDS011;50104;52.002;4.688;2023-05-14T14:22:49;12.02;;;5.40;;
47545;SDS011;50104;52.002;4.688;2023-05-14T14:27:49;10.50;;;4.45;;
47545;SDS011;50104;52.002;4.688;2023-05-14T14:32:51;10.85;;;5.60;;
47545;SDS011;50104;52.002;4.688;2023-05-14T14:37:52;8.85;;;4.80;;
47545;SDS011;50104;52.002;4.688;2023-05-14T14:42:54;7.15;;;4.65;;
47545;SDS011;50104;52.002;4.688;2023-05-14T14:53:26;7.95;;;5.00;;
47545;SDS011;50104;52.002;4.688;2023-05-14T14:58:27;9.52;;;7.10;;
47545;SDS011;50104;52.002;4.688;2023-05-14T15:03:28;11.27;;;5.60;;
47545;SDS011;50104;52.002;4.688;2023-05-14T15:08:29;12.65;;;6.07;;
47545;SDS011;50104;52.002;4.688;2023-05-14T15:13:30;10.00;;;5.15;;
47545;SDS011;50104;52.002;4.688;2023-05-14T15:18:31;8.65;;;5.40;;
47545;SDS011;50104;52.002;4.688;2023-05-14T15:23:32;7.82;;;5.13;;
47545;SDS011;50104;52.002;4.688;2023-05-14T15:28:32;9.38;;;5.60;;
47545;SDS011;50104;52.002;4.688;2023-05-14T15:33:34;12.35;;;6.53;;
47545;SDS011;50104;52.002;4.688;2023-05-14T15:38:35;11.32;;;5.60;;
47545;SDS011;50104;52.002;4.688;2023-05-14T15:43:36;11.90;;;8.90;;
47545;SDS011;50104;52.002;4.688;2023-05-14T15:48:36;9.00;;;6.22;;
47545;SDS011;50104;52.002;4.688;2023-05-14T15:53:37;10.45;;;6.55;;
47545;SDS011;50104;52.002;4.688;2023-05-14T15:58:38;13.23;;;7.60;;
47545;SDS011;50104;52.002;4.688;2023-05-14T16:03:39;12.70;;;7.40;;
47545;SDS011;50104;52.002;4.688;2023-05-14T16:08:40;9.23;;;6.68;;
47545;SDS011;50104;52.002;4.688;2023-05-14T16:13:41;13.43;;;7.65;;
47545;SDS011;50104;52.002;4.688;2023-05-14T16:18:42;10.30;;;7.50;;
47545;SDS011;50104;52.002;4.688;2023-05-14T16:23:43;10.38;;;7.90;;
47545;SDS011;50104;52.002;4.688;2023-05-14T16:28:44;9.60;;;7.45;;
47545;SDS011;50104;52.002;4.688;2023-05-14T16:33:45;10.38;;;7.75;;
47545;SDS011;50104;52.002;4.688;2023-05-14T16:38:45;10.40;;;7.93;;
47545;SDS011;50104;52.002;4.688;2023-05-14T16:43:47;10.90;;;8.20;;
47545;SDS011;50104;52.002;4.688;2023-05-14T16:48:50;10.57;;;7.75;;
47545;SDS011;50104;52.002;4.688;2023-05-14T16:53:50;11.40;;;6.80;;
47545;SDS011;50104;52.002;4.688;2023-05-14T16:58:51;8.70;;;6.63;;
47545;SDS011;50104;52.002;4.688;2023-05-14T17:03:52;10.00;;;6.63;;
47545;SDS011;50104;52.002;4.688;2023-05-14T17:08:53;11.75;;;6.60;;
47545;SDS011;50104;52.002;4.688;2023-05-14T17:13:54;9.38;;;6.28;;
47545;SDS011;50104;52.002;4.688;2023-05-14T17:18:55;12.40;;;6.28;;
47545;SDS011;50104;52.002;4.688;2023-05-14T17:23:56;15.02;;;7.88;;
47545;SDS011;50104;52.002;4.688;2023-05-14T17:28:57;12.50;;;8.20;;
47545;SDS011;50104;52.002;4.688;2023-05-14T17:33:58;8.95;;;6.78;;
47545;SDS011;50104;52.002;4.688;2023-05-14T17:38:59;9.48;;;7.65;;
47545;SDS011;50104;52.002;4.688;2023-05-14T17:44:00;12.57;;;7.82;;
47545;SDS011;50104;52.002;4.688;2023-05-14T17:49:01;10.50;;;7.57;;
47545;SDS011;50104;52.002;4.688;2023-05-14T17:54:02;9.73;;;7.20;;
47545;SDS011;50104;52.002;4.688;2023-05-14T17:59:03;11.18;;;7.68;;
47545;SDS011;50104;52.002;4.688;2023-05-14T18:04:03;17.95;;;7.70;;
47545;SDS011;50104;52.002;4.688;2023-05-14T18:09:05;9.98;;;8.40;;
47545;SDS011;50104;52.002;4.688;2023-05-14T18:14:06;12.40;;;7.50;;
47545;SDS011;50104;52.002;4.688;2023-05-14T18:19:06;10.10;;;7.07;;
47545;SDS011;50104;52.002;4.688;2023-05-14T18:24:07;10.63;;;7.07;;
47545;SDS011;50104;52.002;4.688;2023-05-14T18:29:08;11.32;;;7.18;;
47545;SDS011;50104;52.002;4.688;2023-05-14T18:34:09;13.40;;;7.45;;
47545;SDS011;50104;52.002;4.688;2023-05-14T18:39:10;7.43;;;5.45;;
47545;SDS011;50104;52.002;4.688;2023-05-14T18:44:11;5.55;;;4.80;;
47545;SDS011;50104;52.002;4.688;2023-05-14T18:49:12;7.35;;;4.78;;
47545;SDS011;50104;52.002;4.688;2023-05-14T18:54:13;13.15;;;6.32;;
47545;SDS011;50104;52.002;4.688;2023-05-14T18:59:14;9.23;;;5.90;;
47545;SDS011;50104;52.002;4.688;2023-05-14T19:04:15;7.18;;;5.38;;
47545;SDS011;50104;52.002;4.688;2023-05-14T19:09:16;9.85;;;7.50;;
47545;SDS011;50104;52.002;4.688;2023-05-14T19:14:20;8.77;;;5.75;;
47545;SDS011;50104;52.002;4.688;2023-05-14T19:19:21;9.75;;;5.63;;
47545;SDS011;50104;52.002;4.688;2023-05-14T19:24:21;7.00;;;5.35;;
47545;SDS011;50104;52.002;4.688;2023-05-14T19:29:22;8.15;;;5.22;;
47545;SDS011;50104;52.002;4.688;2023-05-14T19:34:24;9.27;;;6.00;;
47545;SDS011;50104;52.002;4.688;2023-05-14T19:39:26;7.72;;;5.40;;
47545;SDS011;50104;52.002;4.688;2023-05-14T19:44:27;6.38;;;5.13;;
47545;SDS011;50104;52.002;4.688;2023-05-14T19:49:27;10.68;;;5.40;;
47545;SDS011;50104;52.002;4.688;2023-05-14T19:54:28;6.30;;;5.45;;
47545;SDS011;50104;52.002;4.688;2023-05-14T19:59:29;7.15;;;6.50;;
47545;SDS011;50104;52.002;4.688;2023-05-14T20:04:30;5.85;;;5.35;;
47545;SDS011;50104;52.002;4.688;2023-05-14T20:09:32;8.38;;;5.30;;
47545;SDS011;50104;52.002;4.688;2023-05-14T20:14:33;6.78;;;5.55;;
47545;SDS011;50104;52.002;4.688;2023-05-14T20:19:34;11.50;;;5.53;;
47545;SDS011;50104;52.002;4.688;2023-05-14T20:24:34;6.15;;;5.45;;
47545;SDS011;50104;52.002;4.688;2023-05-14T20:29:35;9.68;;;5.53;;
47545;SDS011;50104;52.002;4.688;2023-05-14T20:34:39;11.02;;;6.10;;
47545;SDS011;50104;52.002;4.688;2023-05-14T20:39:40;7.00;;;5.80;;
47545;SDS011;50104;52.002;4.688;2023-05-14T20:44:40;8.70;;;5.95;;
47545;SDS011;50104;52.002;4.688;2023-05-14T20:49:41;7.38;;;6.45;;
47545;SDS011;50104;52.002;4.688;2023-05-14T20:54:42;9.65;;;5.93;;
47545;SDS011;50104;52.002;4.688;2023-05-14T20:59:44;7.40;;;6.28;;
47545;SDS011;50104;52.002;4.688;2023-05-14T21:04:45;10.73;;;6.60;;
47545;SDS011;50104;52.002;4.688;2023-05-14T21:09:46;9.48;;;6.90;;
47545;SDS011;50104;52.002;4.688;2023-05-14T21:14:51;8.88;;;7.32;;
47545;SDS011;50104;52.002;4.688;2023-05-14T21:19:52;10.32;;;7.10;;
47545;SDS011;50104;52.002;4.688;2023-05-14T21:24:53;9.50;;;7.47;;
47545;SDS011;50104;52.002;4.688;2023-05-14T21:29:55;12.82;;;8.05;;
47545;SDS011;50104;52.002;4.688;2023-05-14T21:34:55;11.10;;;8.55;;
47545;SDS011;50104;52.002;4.688;2023-05-14T21:39:56;15.02;;;9.57;;
47545;SDS011;50104;52.002;4.688;2023-05-14T21:44:57;10.98;;;9.00;;
47545;SDS011;50104;52.002;4.688;2023-05-14T21:49:58;14.15;;;9.23;;
47545;SDS011;50104;52.002;4.688;2023-05-14T21:54:59;12.13;;;9.90;;
47545;SDS011;50104;52.002;4.688;2023-05-14T22:00:00;14.60;;;9.88;;
47545;SDS011;50104;52.002;4.688;2023-05-14T22:05:03;15.15;;;10.73;;
47545;SDS011;50104;52.002;4.688;2023-05-14T22:10:04;13.90;;;11.48;;
47545;SDS011;50104;52.002;4.688;2023-05-14T22:15:06;13.90;;;11.52;;
47545;SDS011;50104;52.002;4.688;2023-05-14T22:20:08;14.65;;;11.43;;
47545;SDS011;50104;52.002;4.688;2023-05-14T22:25:09;16.08;;;11.82;;
47545;SDS011;50104;52.002;4.688;2023-05-14T22:30:10;18.70;;;12.13;;
47545;SDS011;50104;52.002;4.688;2023-05-14T22:35:11;14.50;;;12.23;;
47545;SDS011;50104;52.002;4.688;2023-05-14T22:40:12;16.30;;;11.85;;
47545;SDS011;50104;52.002;4.688;2023-05-14T22:45:13;17.67;;;13.00;;
47545;SDS011;50104;52.002;4.688;2023-05-14T22:50:14;14.68;;;12.02;;
47545;SDS011;50104;52.002;4.688;2023-05-14T22:55:15;15.82;;;12.45;;
47545;SDS011;50104;52.002;4.688;2023-05-14T23:00:16;17.80;;;12.75;;
47545;SDS011;50104;52.002;4.688;2023-05-14T23:05:25;20.00;;;13.30;;
47545;SDS011;50104;52.002;4.688;2023-05-14T23:10:25;20.52;;;13.75;;
47545;SDS011;50104;52.002;4.688;2023-05-14T23:15:26;19.85;;;14.45;;
47545;SDS011;50104;52.002;4.688;2023-05-14T23:20:27;20.60;;;14.93;;
47545;SDS011;50104;52.002;4.688;2023-05-14T23:25:28;19.95;;;15.10;;
47545;SDS011;50104;52.002;4.688;2023-05-14T23:30:29;22.27;;;16.02;;
47545;SDS011;50104;52.002;4.688;2023-05-14T23:35:30;26.20;;;17.42;;
47545;SDS011;50104;52.002;4.688;2023-05-14T23:40:30;25.75;;;16.48;;
47545;SDS011;50104;52.002;4.688;2023-05-14T23:45:31;26.90;;;16.70;;
47545;SDS011;50104;52.002;4.688;2023-05-14T23:50:32;24.85;;;16.00;;
47545;SDS011;50104;52.002;4.688;2023-05-14T23:55:33;27.75;;;16.55;;
